sensor_id;sensor_type;location;lat;lon;timestamp;pressure;altitude;pressure_sealevel;temperature;humidity
8292;BME280;4184;42.724;23.308;2022-07-23T00:00:51;95628.34;;;25.11;42.73
8292;BME280;4184;42.724;23.308;2022-07-23T00:03:19;95631.88;;;25.05;43.00
8292;BME280;4184;42.724;23.308;2022-07-23T00:05:47;95645.72;;;25.00;43.27
8292;BME280;4184;42.724;23.308;2022-07-23T00:08:14;95634.59;;;24.92;43.75
8292;BME280;4184;42.724;23.308;2022-07-23T00:10:42;95639.56;;;24.81;43.56
8292;BME280;4184;42.724;23.308;2022-07-23T00:13:09;95640.81;;;24.79;43.86
8292;BME280;4184;42.724;23.308;2022-07-23T00:15:38;95637.94;;;24.80;43.56
8292;BME280;4184;42.724;23.308;2022-07-23T00:18:05;95633.69;;;24.79;43.64
8292;BME280;4184;42.724;23.308;2022-07-23T00:20:34;95638.38;;;24.77;43.71
8292;BME280;4184;42.724;23.308;2022-07-23T00:23:02;95646.75;;;24.74;44.10
8292;BME280;4184;42.724;23.308;2022-07-23T00:25:29;95636.63;;;24.71;43.94
8292;BME280;4184;42.724;23.308;2022-07-23T00:27:57;95645.75;;;24.69;43.93
8292;BME280;4184;42.724;23.308;2022-07-23T00:30:25;95637.91;;;24.62;44.55
8292;BME280;4184;42.724;23.308;2022-07-23T00:32:56;95648.31;;;24.57;44.24
8292;BME280;4184;42.724;23.308;2022-07-23T00:35:25;95648.53;;;24.55;44.71
8292;BME280;4184;42.724;23.308;2022-07-23T00:37:55;95646.50;;;24.51;44.52
8292;BME280;4184;42.724;23.308;2022-07-23T00:40:22;95650.66;;;24.40;45.06
8292;BME280;4184;42.724;23.308;2022-07-23T00:42:50;95654.78;;;24.29;45.28
8292;BME280;4184;42.724;23.308;2022-07-23T00:45:18;95648.34;;;24.19;45.47
8292;BME280;4184;42.724;23.308;2022-07-23T00:47:46;95648.34;;;24.12;45.71
8292;BME280;4184;42.724;23.308;2022-07-23T00:50:14;95653.09;;;24.04;45.82
8292;BME280;4184;42.724;23.308;2022-07-23T00:52:42;95652.06;;;23.98;45.66
8292;BME280;4184;42.724;23.308;2022-07-23T00:55:12;95658.00;;;23.93;45.87
8292;BME280;4184;42.724;23.308;2022-07-23T00:57:41;95658.63;;;23.89;45.96
8292;BME280;4184;42.724;23.308;2022-07-23T01:00:11;95657.81;;;23.88;45.96
8292;BME280;4184;42.724;23.308;2022-07-23T01:02:40;95648.47;;;23.92;46.02
8292;BME280;4184;42.724;23.308;2022-07-23T01:05:08;95649.28;;;23.93;45.72
8292;BME280;4184;42.724;23.308;2022-07-23T01:07:36;95650.06;;;23.93;45.97
8292;BME280;4184;42.724;23.308;2022-07-23T01:10:04;95652.50;;;23.95;46.03
8292;BME280;4184;42.724;23.308;2022-07-23T01:12:53;95644.59;;;23.95;45.95
8292;BME280;4184;42.724;23.308;2022-07-23T01:15:21;95654.56;;;23.93;45.94
8292;BME280;4184;42.724;23.308;2022-07-23T01:17:48;95653.53;;;23.94;45.91
8292;BME280;4184;42.724;23.308;2022-07-23T01:20:16;95652.50;;;23.95;45.88
8292;BME280;4184;42.724;23.308;2022-07-23T01:22:45;95648.03;;;23.95;45.59
8292;BME280;4184;42.724;23.308;2022-07-23T01:25:13;95653.91;;;23.97;45.64
8292;BME280;4184;42.724;23.308;2022-07-23T01:27:41;95649.44;;;23.98;45.63
8292;BME280;4184;42.724;23.308;2022-07-23T01:30:10;95643.56;;;23.96;45.72
8292;BME280;4184;42.724;23.308;2022-07-23T01:32:38;95649.88;;;23.95;45.59
8292;BME280;4184;42.724;23.308;2022-07-23T01:35:07;95643.56;;;23.96;45.69
8292;BME280;4184;42.724;23.308;2022-07-23T01:37:35;95644.59;;;23.95;45.42
8292;BME280;4184;42.724;23.308;2022-07-23T01:40:05;95635.03;;;23.94;45.60
8292;BME280;4184;42.724;23.308;2022-07-23T01:42:34;95646.41;;;23.94;45.38
8292;BME280;4184;42.724;23.308;2022-07-23T01:45:03;95641.94;;;23.95;45.78
8292;BME280;4184;42.724;23.308;2022-07-23T01:47:31;95641.34;;;23.93;45.45
8292;BME280;4184;42.724;23.308;2022-07-23T01:49:58;95642.59;;;23.90;45.75
8292;BME280;4184;42.724;23.308;2022-07-23T01:52:25;95642.78;;;23.89;45.75
8292;BME280;4184;42.724;23.308;2022-07-23T01:54:53;95644.22;;;23.85;45.82
8292;BME280;4184;42.724;23.308;2022-07-23T01:57:22;95643.00;;;23.81;46.13
8292;BME280;4184;42.724;23.308;2022-07-23T01:59:49;95639.19;;;23.77;46.04
8292;BME280;4184;42.724;23.308;2022-07-23T02:02:17;95648.56;;;23.73;46.03
8292;BME280;4184;42.724;23.308;2022-07-23T02:04:44;95646.13;;;23.64;46.28
8292;BME280;4184;42.724;23.308;2022-07-23T02:07:12;95651.84;;;23.55;46.77
8292;BME280;4184;42.724;23.308;2022-07-23T02:09:40;95650.81;;;23.49;46.86
8292;BME280;4184;42.724;23.308;2022-07-23T02:12:07;95645.75;;;23.48;46.75
8292;BME280;4184;42.724;23.308;2022-07-23T02:14:36;95653.66;;;23.48;46.92
8292;BME280;4184;42.724;23.308;2022-07-23T02:17:04;95645.34;;;23.44;47.00
8292;BME280;4184;42.724;23.308;2022-07-23T02:19:31;95647.41;;;23.42;47.16
8292;BME280;4184;42.724;23.308;2022-07-23T02:21:59;95649.66;;;23.38;47.18
8292;BME280;4184;42.724;23.308;2022-07-23T02:24:26;95650.88;;;23.36;47.22
8292;BME280;4184;42.724;23.308;2022-07-23T02:26:53;95640.53;;;23.28;47.42
8292;BME280;4184;42.724;23.308;2022-07-23T02:29:21;95646.63;;;23.22;47.52
8292;BME280;4184;42.724;23.308;2022-07-23T02:31:50;95649.69;;;23.19;47.63
8292;BME280;4184;42.724;23.308;2022-07-23T02:34:17;95643.41;;;23.20;47.52
8292;BME280;4184;42.724;23.308;2022-07-23T02:36:45;95647.06;;;23.19;47.53
8292;BME280;4184;42.724;23.308;2022-07-23T02:39:12;95647.88;;;23.19;47.27
8292;BME280;4184;42.724;23.308;2022-07-23T02:41:40;95646.25;;;23.18;47.31
8292;BME280;4184;42.724;23.308;2022-07-23T02:44:08;95659.63;;;23.17;47.51
8292;BME280;4184;42.724;23.308;2022-07-23T02:46:35;95653.75;;;23.15;47.38
8292;BME280;4184;42.724;23.308;2022-07-23T02:49:04;95653.75;;;23.15;47.58
8292;BME280;4184;42.724;23.308;2022-07-23T02:51:31;95656.78;;;23.11;47.47
8292;BME280;4184;42.724;23.308;2022-07-23T02:53:59;95659.66;;;23.03;47.60
8292;BME280;4184;42.724;23.308;2022-07-23T02:56:26;95663.50;;;22.94;48.01
8292;BME280;4184;42.724;23.308;2022-07-23T02:58:54;95668.59;;;22.89;48.05
8292;BME280;4184;42.724;23.308;2022-07-23T03:01:21;95672.03;;;22.90;47.99
8292;BME280;4184;42.724;23.308;2022-07-23T03:03:49;95675.06;;;22.87;48.37
8292;BME280;4184;42.724;23.308;2022-07-23T03:06:18;95673.41;;;22.79;48.21
8292;BME280;4184;42.724;23.308;2022-07-23T03:08:46;95680.72;;;22.77;48.52
8292;BME280;4184;42.724;23.308;2022-07-23T03:11:13;95679.09;;;22.76;48.72
8292;BME280;4184;42.724;23.308;2022-07-23T03:13:41;95683.34;;;22.77;48.56
8292;BME280;4184;42.724;23.308;2022-07-23T03:16:09;95683.94;;;22.79;48.47
8292;BME280;4184;42.724;23.308;2022-07-23T03:18:36;95686.59;;;22.79;48.47
8292;BME280;4184;42.724;23.308;2022-07-23T03:21:04;95689.22;;;22.79;48.35
8292;BME280;4184;42.724;23.308;2022-07-23T03:23:33;95687.19;;;22.81;48.59
8292;BME280;4184;42.724;23.308;2022-07-23T03:26:00;95689.22;;;22.79;48.34
8292;BME280;4184;42.724;23.308;2022-07-23T03:28:28;95687.59;;;22.78;48.20
8292;BME280;4184;42.724;23.308;2022-07-23T03:30:56;95687.59;;;22.78;48.28
8292;BME280;4184;42.724;23.308;2022-07-23T03:33:24;95693.09;;;22.83;48.32
8292;BME280;4184;42.724;23.308;2022-07-23T03:35:51;95692.94;;;22.85;48.22
8292;BME280;4184;42.724;23.308;2022-07-23T03:38:19;95703.47;;;22.91;48.17
8292;BME280;4184;42.724;23.308;2022-07-23T03:40:47;95694.53;;;22.92;48.00
8292;BME280;4184;42.724;23.308;2022-07-23T03:43:15;95691.69;;;22.94;48.11
8292;BME280;4184;42.724;23.308;2022-07-23T03:45:42;95689.25;;;22.92;48.17
8292;BME280;4184;42.724;23.308;2022-07-23T03:48:10;95697.97;;;22.93;48.15
8292;BME280;4184;42.724;23.308;2022-07-23T03:50:37;95690.47;;;22.96;48.24
8292;BME280;4184;42.724;23.308;2022-07-23T03:53:05;95688.06;;;23.01;48.08
8292;BME280;4184;42.724;23.308;2022-07-23T03:55:32;95694.34;;;23.07;47.75
8292;BME280;4184;42.724;23.308;2022-07-23T03:58:02;95694.94;;;23.09;47.62
8292;BME280;4184;42.724;23.308;2022-07-23T04:00:29;95692.91;;;23.11;47.86
8292;BME280;4184;42.724;23.308;2022-07-23T04:02:57;95694.53;;;23.19;47.68
8292;BME280;4184;42.724;23.308;2022-07-23T04:05:24;95695.31;;;23.26;47.59
8292;BME280;4184;42.724;23.308;2022-07-23T04:07:52;95696.13;;;23.33;47.44
8292;BME280;4184;42.724;23.308;2022-07-23T04:10:19;95696.31;;;23.31;47.28
8292;BME280;4184;42.724;23.308;2022-07-23T04:12:47;95704.25;;;23.38;47.37
8292;BME280;4184;42.724;23.308;2022-07-23T04:15:16;95703.38;;;23.64;46.96
8292;BME280;4184;42.724;23.308;2022-07-23T04:17:43;95708.09;;;24.13;46.29
8292;BME280;4184;42.724;23.308;2022-07-23T04:20:13;95708.91;;;24.52;45.46
8292;BME280;4184;42.724;23.308;2022-07-23T04:22:40;95706.13;;;24.78;44.50
8292;BME280;4184;42.724;23.308;2022-07-23T04:25:08;95698.16;;;25.10;43.95
8292;BME280;4184;42.724;23.308;2022-07-23T04:27:35;95705.34;;;25.46;43.60
8292;BME280;4184;42.724;23.308;2022-07-23T04:30:04;95702.41;;;25.79;42.81
8292;BME280;4184;42.724;23.308;2022-07-23T04:32:33;95697.97;;;26.09;42.08
8292;BME280;4184;42.724;23.308;2022-07-23T04:35:00;95699.19;;;26.44;41.84
8292;BME280;4184;42.724;23.308;2022-07-23T04:37:28;95699.59;;;26.71;41.08
8292;BME280;4184;42.724;23.308;2022-07-23T04:39:56;95704.47;;;26.85;40.73
8292;BME280;4184;42.724;23.308;2022-07-23T04:42:23;95706.03;;;27.16;40.22
8292;BME280;4184;42.724;23.308;2022-07-23T04:44:50;95700.97;;;27.50;39.85
8292;BME280;4184;42.724;23.308;2022-07-23T04:47:18;95706.06;;;27.75;39.51
8292;BME280;4184;42.724;23.308;2022-07-23T04:49:47;95715.25;;;28.07;39.12
8292;BME280;4184;42.724;23.308;2022-07-23T04:52:14;95713.09;;;28.33;38.42
8292;BME280;4184;42.724;23.308;2022-07-23T04:54:42;95722.50;;;28.52;37.97
8292;BME280;4184;42.724;23.308;2022-07-23T04:57:09;95710.94;;;28.75;38.01
8292;BME280;4184;42.724;23.308;2022-07-23T04:59:37;95711.97;;;29.02;37.57
8292;BME280;4184;42.724;23.308;2022-07-23T05:02:04;95718.25;;;29.30;36.71
8292;BME280;4184;42.724;23.308;2022-07-23T05:04:32;95706.88;;;29.51;36.67
8292;BME280;4184;42.724;23.308;2022-07-23T05:07:01;95705.63;;;29.76;36.18
8292;BME280;4184;42.724;23.308;2022-07-23T05:09:28;95709.66;;;30.00;35.88
8292;BME280;4184;42.724;23.308;2022-07-23T05:11:56;95711.28;;;30.23;35.89
8292;BME280;4184;42.724;23.308;2022-07-23T05:14:23;95714.75;;;30.45;35.02
8292;BME280;4184;42.724;23.308;2022-07-23T05:16:51;95719.00;;;30.68;35.00
8292;BME280;4184;42.724;23.308;2022-07-23T05:19:18;95708.50;;;30.89;34.55
8292;BME280;4184;42.724;23.308;2022-07-23T05:21:46;95707.03;;;31.03;34.23
8292;BME280;4184;42.724;23.308;2022-07-23T05:24:15;95706.06;;;31.14;33.95
8292;BME280;4184;42.724;23.308;2022-07-23T05:26:42;95707.81;;;31.25;33.64
8292;BME280;4184;42.724;23.308;2022-07-23T05:29:10;95712.19;;;31.41;33.56
8292;BME280;4184;42.724;23.308;2022-07-23T05:31:37;95706.44;;;31.65;32.97
8292;BME280;4184;42.724;23.308;2022-07-23T05:34:05;95710.59;;;31.88;32.77
8292;BME280;4184;42.724;23.308;2022-07-23T05:36:33;95712.59;;;32.13;32.51
8292;BME280;4184;42.724;23.308;2022-07-23T05:39:00;95717.50;;;32.36;32.30
8292;BME280;4184;42.724;23.308;2022-07-23T05:41:29;95712.75;;;32.58;32.01
8292;BME280;4184;42.724;23.308;2022-07-23T05:43:56;95722.44;;;32.80;31.99
8292;BME280;4184;42.724;23.308;2022-07-23T05:46:24;95719.00;;;33.05;31.77
8292;BME280;4184;42.724;23.308;2022-07-23T05:48:51;95709.34;;;33.24;31.65
8292;BME280;4184;42.724;23.308;2022-07-23T05:51:23;95709.91;;;33.41;31.31
8292;BME280;4184;42.724;23.308;2022-07-23T05:53:51;95715.78;;;33.64;30.52
8292;BME280;4184;42.724;23.308;2022-07-23T05:56:19;95707.94;;;33.83;30.85
8292;BME280;4184;42.724;23.308;2022-07-23T05:58:48;95709.00;;;33.97;30.74
8292;BME280;4184;42.724;23.308;2022-07-23T06:01:15;95703.31;;;34.14;30.04
8292;BME280;4184;42.724;23.308;2022-07-23T06:03:43;95697.03;;;34.33;29.79
8292;BME280;4184;42.724;23.308;2022-07-23T06:06:11;95697.56;;;34.41;29.72
8292;BME280;4184;42.724;23.308;2022-07-23T06:08:38;95698.13;;;34.32;29.75
8292;BME280;4184;42.724;23.308;2022-07-23T06:11:06;95699.16;;;34.47;29.68
8292;BME280;4184;42.724;23.308;2022-07-23T06:13:33;95695.31;;;34.63;29.27
8292;BME280;4184;42.724;23.308;2022-07-23T06:16:02;95701.91;;;34.76;29.16
8292;BME280;4184;42.724;23.308;2022-07-23T06:18:30;95703.44;;;34.92;29.23
8292;BME280;4184;42.724;23.308;2022-07-23T06:20:57;95706.81;;;35.08;29.04
8292;BME280;4184;42.724;23.308;2022-07-23T06:23:25;95700.78;;;35.21;29.05
8292;BME280;4184;42.724;23.308;2022-07-23T06:25:52;95699.84;;;35.41;28.64
8292;BME280;4184;42.724;23.308;2022-07-23T06:28:20;95701.00;;;35.58;28.42
8292;BME280;4184;42.724;23.308;2022-07-23T06:30:48;95689.69;;;35.62;28.37
8292;BME280;4184;42.724;23.308;2022-07-23T06:33:17;95694.13;;;35.47;28.41
8292;BME280;4184;42.724;23.308;2022-07-23T06:35:44;95692.63;;;35.36;28.28
8292;BME280;4184;42.724;23.308;2022-07-23T06:38:12;95695.16;;;35.51;28.05
8292;BME280;4184;42.724;23.308;2022-07-23T06:40:40;95698.44;;;35.72;27.91
8292;BME280;4184;42.724;23.308;2022-07-23T06:43:07;95693.63;;;35.98;27.85
8292;BME280;4184;42.724;23.308;2022-07-23T06:45:35;95691.69;;;36.23;27.77
8292;BME280;4184;42.724;23.308;2022-07-23T06:48:02;95691.16;;;36.44;27.46
8292;BME280;4184;42.724;23.308;2022-07-23T06:50:31;95695.47;;;36.64;27.52
8292;BME280;4184;42.724;23.308;2022-07-23T06:52:59;95696.28;;;36.84;27.39
8292;BME280;4184;42.724;23.308;2022-07-23T06:55:26;95687.72;;;36.76;27.40
8292;BME280;4184;42.724;23.308;2022-07-23T06:57:54;95687.22;;;36.74;27.49
8292;BME280;4184;42.724;23.308;2022-07-23T07:00:22;95695.69;;;36.87;27.08
8292;BME280;4184;42.724;23.308;2022-07-23T07:02:49;95687.38;;;37.02;27.11
8292;BME280;4184;42.724;23.308;2022-07-23T07:05:17;95685.09;;;37.09;26.75
8292;BME280;4184;42.724;23.308;2022-07-23T07:07:46;95682.13;;;37.24;26.65
8292;BME280;4184;42.724;23.308;2022-07-23T07:10:14;95684.00;;;37.43;26.67
8292;BME280;4184;42.724;23.308;2022-07-23T07:12:42;95678.63;;;37.43;26.66
8292;BME280;4184;42.724;23.308;2022-07-23T07:15:10;95680.34;;;37.66;26.77
8292;BME280;4184;42.724;23.308;2022-07-23T07:17:37;95667.97;;;37.92;25.96
8292;BME280;4184;42.724;23.308;2022-07-23T07:20:06;95664.84;;;38.13;26.17
8292;BME280;4184;42.724;23.308;2022-07-23T07:22:34;95670.50;;;38.30;25.69
8292;BME280;4184;42.724;23.308;2022-07-23T07:25:04;95667.34;;;38.50;25.23
8292;BME280;4184;42.724;23.308;2022-07-23T07:27:31;95667.03;;;38.66;25.79
8292;BME280;4184;42.724;23.308;2022-07-23T07:29:59;95672.06;;;38.81;25.36
8292;BME280;4184;42.724;23.308;2022-07-23T07:32:26;95657.94;;;38.84;25.29
8292;BME280;4184;42.724;23.308;2022-07-23T07:34:54;95656.69;;;38.90;24.90
8292;BME280;4184;42.724;23.308;2022-07-23T07:37:21;95658.38;;;39.00;24.87
8292;BME280;4184;42.724;23.308;2022-07-23T07:39:49;95661.38;;;39.21;25.20
8292;BME280;4184;42.724;23.308;2022-07-23T07:42:18;95654.47;;;39.37;25.16
8292;BME280;4184;42.724;23.308;2022-07-23T07:44:46;95652.00;;;39.49;24.66
8292;BME280;4184;42.724;23.308;2022-07-23T07:47:13;95650.31;;;39.62;24.96
8292;BME280;4184;42.724;23.308;2022-07-23T07:49:42;95654.03;;;39.75;24.69
8292;BME280;4184;42.724;23.308;2022-07-23T07:52:10;95651.34;;;39.83;24.51
8292;BME280;4184;42.724;23.308;2022-07-23T07:54:38;95638.47;;;39.89;24.54
8292;BME280;4184;42.724;23.308;2022-07-23T07:57:05;95639.47;;;40.02;24.19
8292;BME280;4184;42.724;23.308;2022-07-23T07:59:34;95642.38;;;40.22;24.21
8292;BME280;4184;42.724;23.308;2022-07-23T08:02:02;95643.22;;;40.32;24.16
8292;BME280;4184;42.724;23.308;2022-07-23T08:04:29;95651.50;;;40.35;24.09
8292;BME280;4184;42.724;23.308;2022-07-23T08:06:57;95643.38;;;40.44;23.93
8292;BME280;4184;42.724;23.308;2022-07-23T08:09:26;95641.16;;;40.46;23.67
8292;BME280;4184;42.724;23.308;2022-07-23T08:11:53;95638.91;;;40.48;23.73
8292;BME280;4184;42.724;23.308;2022-07-23T08:14:21;95633.19;;;40.58;23.84
8292;BME280;4184;42.724;23.308;2022-07-23T08:16:50;95639.72;;;40.74;23.69
8292;BME280;4184;42.724;23.308;2022-07-23T08:19:18;95635.13;;;40.83;23.74
8292;BME280;4184;42.724;23.308;2022-07-23T08:21:45;95632.53;;;40.96;23.68
8292;BME280;4184;42.724;23.308;2022-07-23T08:24:13;95637.63;;;41.06;23.42
8292;BME280;4184;42.724;23.308;2022-07-23T08:26:41;95635.22;;;41.13;23.31
8292;BME280;4184;42.724;23.308;2022-07-23T08:29:08;95626.13;;;41.09;23.22
8292;BME280;4184;42.724;23.308;2022-07-23T08:31:36;95633.34;;;41.05;23.41
8292;BME280;4184;42.724;23.308;2022-07-23T08:34:05;95626.44;;;41.16;23.56
8292;BME280;4184;42.724;23.308;2022-07-23T08:36:32;95628.69;;;41.05;23.26
8292;BME280;4184;42.724;23.308;2022-07-23T08:39:00;95631.56;;;41.09;23.31
8292;BME280;4184;42.724;23.308;2022-07-23T08:41:29;95634.09;;;41.14;23.33
8292;BME280;4184;42.724;23.308;2022-07-23T08:43:56;95619.25;;;41.29;23.15
8292;BME280;4184;42.724;23.308;2022-07-23T08:46:27;95629.50;;;41.06;23.14
8292;BME280;4184;42.724;23.308;2022-07-23T08:48:55;95625.84;;;41.02;23.23
8292;BME280;4184;42.724;23.308;2022-07-23T08:51:26;95629.97;;;41.08;23.38
8292;BME280;4184;42.724;23.308;2022-07-23T08:53:55;95613.97;;;41.32;23.18
8292;BME280;4184;42.724;23.308;2022-07-23T08:56:23;95613.41;;;41.47;22.92
8292;BME280;4184;42.724;23.308;2022-07-23T08:58:52;95609.03;;;41.64;22.78
8292;BME280;4184;42.724;23.308;2022-07-23T09:01:20;95606.94;;;41.78;22.62
8292;BME280;4184;42.724;23.308;2022-07-23T09:03:48;95601.91;;;41.89;22.92
8292;BME280;4184;42.724;23.308;2022-07-23T09:06:15;95600.09;;;42.01;23.08
8292;BME280;4184;42.724;23.308;2022-07-23T09:08:44;95600.06;;;42.10;22.97
8292;BME280;4184;42.724;23.308;2022-07-23T09:11:15;95608.66;;;42.12;22.20
8292;BME280;4184;42.724;23.308;2022-07-23T09:13:47;95602.38;;;41.91;22.17
8292;BME280;4184;42.724;23.308;2022-07-23T09:16:16;95607.03;;;41.90;22.30
8292;BME280;4184;42.724;23.308;2022-07-23T09:18:47;95600.72;;;41.98;22.39
8292;BME280;4184;42.724;23.308;2022-07-23T09:21:17;95595.00;;;42.00;22.36
8292;BME280;4184;42.724;23.308;2022-07-23T09:23:48;95595.91;;;42.04;22.61
8292;BME280;4184;42.724;23.308;2022-07-23T09:26:24;95596.88;;;42.08;22.38
8292;BME280;4184;42.724;23.308;2022-07-23T09:28:54;95594.63;;;42.10;22.21
8292;BME280;4184;42.724;23.308;2022-07-23T09:31:23;95588.38;;;42.10;21.96
8292;BME280;4184;42.724;23.308;2022-07-23T09:33:51;95584.38;;;42.07;22.01
8292;BME280;4184;42.724;23.308;2022-07-23T09:36:29;95589.19;;;42.10;21.82
8292;BME280;4184;42.724;23.308;2022-07-23T09:38:58;95587.06;;;42.16;22.34
8292;BME280;4184;42.724;23.308;2022-07-23T09:41:35;95581.16;;;42.14;22.33
8292;BME280;4184;42.724;23.308;2022-07-23T09:44:08;95575.44;;;42.06;22.37
8292;BME280;4184;42.724;23.308;2022-07-23T09:46:36;95576.09;;;42.03;21.80
8292;BME280;4184;42.724;23.308;2022-07-23T09:49:18;95572.50;;;41.91;22.61
8292;BME280;4184;42.724;23.308;2022-07-23T09:51:53;95572.84;;;41.89;22.47
8292;BME280;4184;42.724;23.308;2022-07-23T09:54:32;95572.06;;;41.80;22.44
8292;BME280;4184;42.724;23.308;2022-07-23T09:57:03;95570.16;;;41.81;22.58
8292;BME280;4184;42.724;23.308;2022-07-23T09:59:35;95563.41;;;41.66;22.89
8292;BME280;4184;42.724;23.308;2022-07-23T10:02:04;95564.38;;;41.53;22.83
8292;BME280;4184;42.724;23.308;2022-07-23T10:04:33;95565.88;;;41.41;22.90
8292;BME280;4184;42.724;23.308;2022-07-23T10:07:02;95560.97;;;41.26;22.87
8292;BME280;4184;42.724;23.308;2022-07-23T10:09:34;95556.28;;;40.88;23.30
8292;BME280;4184;42.724;23.308;2022-07-23T10:12:04;95553.16;;;40.52;23.58
8292;BME280;4184;42.724;23.308;2022-07-23T10:14:46;95547.06;;;40.20;23.87
8292;BME280;4184;42.724;23.308;2022-07-23T10:17:15;95550.50;;;39.78;24.15
8292;BME280;4184;42.724;23.308;2022-07-23T10:19:43;95547.13;;;39.24;24.62
8292;BME280;4184;42.724;23.308;2022-07-23T10:22:13;95540.94;;;38.70;24.45
8292;BME280;4184;42.724;23.308;2022-07-23T10:24:58;95537.59;;;38.28;25.39
8292;BME280;4184;42.724;23.308;2022-07-23T10:27:54;95535.31;;;37.85;26.36
8292;BME280;4184;42.724;23.308;2022-07-23T10:30:31;95529.63;;;37.46;26.01
8292;BME280;4184;42.724;23.308;2022-07-23T10:33:18;95534.59;;;37.11;26.30
8292;BME280;4184;42.724;23.308;2022-07-23T10:35:50;95531.38;;;36.82;27.05
8292;BME280;4184;42.724;23.308;2022-07-23T10:38:23;95530.19;;;36.55;27.37
8292;BME280;4184;42.724;23.308;2022-07-23T10:40:59;95532.09;;;36.36;27.29
8292;BME280;4184;42.724;23.308;2022-07-23T10:43:28;95522.34;;;36.21;27.42
8292;BME280;4184;42.724;23.308;2022-07-23T10:45:56;95521.28;;;36.03;27.58
8292;BME280;4184;42.724;23.308;2022-07-23T10:48:43;95516.31;;;35.92;27.79
8292;BME280;4184;42.724;23.308;2022-07-23T10:51:13;95515.09;;;35.84;27.54
8292;BME280;4184;42.724;23.308;2022-07-23T10:53:57;95516.28;;;35.73;27.87
8292;BME280;4184;42.724;23.308;2022-07-23T10:57:03;95511.34;;;35.61;27.71
8292;BME280;4184;42.724;23.308;2022-07-23T11:00:11;95505.28;;;35.50;27.89
8292;BME280;4184;42.724;23.308;2022-07-23T11:02:40;95504.28;;;35.46;27.77
8292;BME280;4184;42.724;23.308;2022-07-23T11:05:09;95499.19;;;35.45;27.78
8292;BME280;4184;42.724;23.308;2022-07-23T11:10:33;95494.72;;;35.35;27.91
8292;BME280;4184;42.724;23.308;2022-07-23T11:13:30;95487.78;;;35.29;28.08
8292;BME280;4184;42.724;23.308;2022-07-23T11:19:08;95478.22;;;35.18;28.06
8292;BME280;4184;42.724;23.308;2022-07-23T11:21:47;95479.66;;;35.10;27.81
8292;BME280;4184;42.724;23.308;2022-07-23T11:24:20;95467.09;;;35.06;27.55
8292;BME280;4184;42.724;23.308;2022-07-23T11:26:54;95468.75;;;35.02;27.84
8292;BME280;4184;42.724;23.308;2022-07-23T11:29:40;95472.59;;;34.95;27.43
8292;BME280;4184;42.724;23.308;2022-07-23T11:32:17;95468.81;;;34.96;27.16
8292;BME280;4184;42.724;23.308;2022-07-23T11:34:47;95465.03;;;34.97;27.48
8292;BME280;4184;42.724;23.308;2022-07-23T11:37:29;95473.72;;;34.89;27.65
8292;BME280;4184;42.724;23.308;2022-07-23T11:39:58;95465.69;;;34.84;27.33
8292;BME280;4184;42.724;23.308;2022-07-23T11:42:26;95456.56;;;34.85;27.63
8292;BME280;4184;42.724;23.308;2022-07-23T11:44:55;95457.63;;;34.84;27.63
8292;BME280;4184;42.724;23.308;2022-07-23T11:47:25;95449.56;;;34.84;26.95
8292;BME280;4184;42.724;23.308;2022-07-23T11:49:54;95450.38;;;34.85;27.60
8292;BME280;4184;42.724;23.308;2022-07-23T11:52:22;95445.81;;;34.85;27.64
8292;BME280;4184;42.724;23.308;2022-07-23T11:54:52;95454.13;;;34.84;27.13
8292;BME280;4184;42.724;23.308;2022-07-23T11:57:21;95448.53;;;34.80;27.75
8292;BME280;4184;42.724;23.308;2022-07-23T11:59:55;95447.50;;;34.76;27.88
8292;BME280;4184;42.724;23.308;2022-07-23T12:02:23;95448.06;;;34.73;27.30
8292;BME280;4184;42.724;23.308;2022-07-23T12:04:51;95442.69;;;34.73;27.77
8292;BME280;4184;42.724;23.308;2022-07-23T12:07:27;95445.38;;;34.73;27.62
8292;BME280;4184;42.724;23.308;2022-07-23T12:09:57;95444.00;;;34.76;27.41
8292;BME280;4184;42.724;23.308;2022-07-23T12:12:25;95436.75;;;34.76;27.11
8292;BME280;4184;42.724;23.308;2022-07-23T12:14:56;95435.94;;;34.76;27.22
8292;BME280;4184;42.724;23.308;2022-07-23T12:17:29;95434.63;;;34.73;26.63
8292;BME280;4184;42.724;23.308;2022-07-23T12:19:58;95429.78;;;34.75;27.07
8292;BME280;4184;42.724;23.308;2022-07-23T12:22:33;95432.75;;;34.74;27.34
8292;BME280;4184;42.724;23.308;2022-07-23T12:25:04;95427.16;;;34.70;26.56
8292;BME280;4184;42.724;23.308;2022-07-23T12:27:33;95421.78;;;34.70;27.04
8292;BME280;4184;42.724;23.308;2022-07-23T12:32:56;95419.09;;;34.70;26.79
8292;BME280;4184;42.724;23.308;2022-07-23T12:35:31;95418.50;;;34.73;26.75
8292;BME280;4184;42.724;23.308;2022-07-23T12:38:02;95412.84;;;34.75;26.77
8292;BME280;4184;42.724;23.308;2022-07-23T12:40:32;95408.28;;;34.75;26.72
8292;BME280;4184;42.724;23.308;2022-07-23T12:43:02;95408.28;;;34.75;26.47
8292;BME280;4184;42.724;23.308;2022-07-23T12:45:43;95406.41;;;34.76;26.54
8292;BME280;4184;42.724;23.308;2022-07-23T12:48:24;95406.69;;;34.74;26.13
8292;BME280;4184;42.724;23.308;2022-07-23T12:50:57;95404.00;;;34.74;26.31
8292;BME280;4184;42.724;23.308;2022-07-23T12:53:27;95403.47;;;34.72;25.88
8292;BME280;4184;42.724;23.308;2022-07-23T12:56:01;95403.47;;;34.72;26.13
8292;BME280;4184;42.724;23.308;2022-07-23T12:58:41;95394.91;;;34.70;25.74
8292;BME280;4184;42.724;23.308;2022-07-23T13:01:10;95396.50;;;34.71;25.96
8292;BME280;4184;42.724;23.308;2022-07-23T13:03:57;95397.88;;;34.68;25.59
8292;BME280;4184;42.724;23.308;2022-07-23T13:06:26;95396.06;;;34.64;25.80
8292;BME280;4184;42.724;23.308;2022-07-23T13:08:54;95387.50;;;34.62;25.94
8292;BME280;4184;42.724;23.308;2022-07-23T13:11:21;95392.34;;;34.60;25.74
8292;BME280;4184;42.724;23.308;2022-07-23T13:13:50;95389.66;;;34.60;25.76
8292;BME280;4184;42.724;23.308;2022-07-23T13:16:17;95391.28;;;34.61;26.02
8292;BME280;4184;42.724;23.308;2022-07-23T13:18:45;95391.00;;;34.62;26.03
8292;BME280;4184;42.724;23.308;2022-07-23T13:21:14;95390.69;;;34.64;26.20
8292;BME280;4184;42.724;23.308;2022-07-23T13:23:42;95390.69;;;34.64;25.72
8292;BME280;4184;42.724;23.308;2022-07-23T13:26:10;95393.38;;;34.64;25.90
8292;BME280;4184;42.724;23.308;2022-07-23T13:28:38;95388.00;;;34.64;25.53
8292;BME280;4184;42.724;23.308;2022-07-23T13:31:06;95389.09;;;34.63;26.08